Time;durP1;ratioP1;P1;durP2;ratioP2;P2;SDS_P1;SDS_P2;PMS_P1;PMS_P2;Temp;Humidity;BMP_temperature;BMP_pressure;BME280_temperature;BME280_humidity;BME280_pressure;Samples;Min_cycle;Max_cycle;Signal;HPM_P1;HPM_P2
2022/11/04 00:00:10;;;;;;;8.40;4.50;;;10.60;99.90;;;;;;5012158;28;20042;-53
2022/11/04 00:02:37;;;;;;;10.02;5.22;;;10.60;99.90;;;;;;5012108;28;20041;-50
2022/11/04 00:05:04;;;;;;;12.57;6.35;;;10.50;99.90;;;;;;5017199;28;20041;-51
2022/11/04 00:08:31;;;;;;;15.75;6.47;;;10.50;99.90;;;;;;5012440;28;20100;-51
2022/11/04 00:12:23;;;;;;;17.38;6.57;;;10.40;99.90;;;;;;4997890;28;20096;-51
2022/11/04 00:13:13;;;;;;;10.82;6.43;;;10.40;99.90;;;;;;5012527;28;20078;-53
2022/11/04 00:18:25;;;;;;;15.73;7.05;;;10.30;99.90;;;;;;5014446;28;20074;-52
2022/11/04 00:29:22;;;;;;;;;;;10.30;99.90;;;;;;5016888;28;20576;-51
2022/11/04 00:34:34;;;;;;;14.73;6.20;;;10.40;99.90;;;;;;5010447;28;20050;-49
2022/11/04 00:37:01;;;;;;;15.68;6.03;;;10.70;99.90;;;;;;5008002;28;20458;-50
2022/11/04 00:39:28;;;;;;;12.13;5.90;;;10.90;99.90;;;;;;5006265;28;20100;-52
2022/11/04 00:41:55;;;;;;;8.90;4.80;;;11.10;99.90;;;;;;5018359;28;20050;-49
2022/11/04 00:44:22;;;;;;;7.28;4.88;;;11.00;99.90;;;;;;5027130;28;20049;-51
2022/11/04 00:46:48;;;;;;;11.60;4.97;;;10.90;99.90;;;;;;5012631;28;20125;-49
2022/11/04 00:49:15;;;;;;;11.07;4.70;;;10.80;99.90;;;;;;5006943;28;20461;-50
2022/11/04 00:51:42;;;;;;;9.57;4.50;;;10.70;99.90;;;;;;5032044;28;20069;-49
2022/11/04 00:54:09;;;;;;;8.52;4.38;;;10.70;99.90;;;;;;5026982;28;20111;-50
2022/11/04 00:56:39;;;;;;;7.43;4.20;;;10.70;99.90;;;;;;5012859;28;20505;-53
2022/11/04 00:59:06;;;;;;;9.77;4.20;;;10.70;99.90;;;;;;5018749;28;20104;-51
2022/11/04 01:01:39;;;;;;;10.38;4.57;;;10.80;99.90;;;;;;5026375;28;20099;-53
2022/11/04 01:04:06;;;;;;;;;;;10.80;99.90;;;;;;5011506;28;20108;-51
2022/11/04 01:06:33;;;;;;;9.60;4.18;;;10.80;99.90;;;;;;5012005;28;20435;-51
2022/11/04 01:09:03;;;;;;;5.63;4.22;;;10.70;99.90;;;;;;5007273;28;20108;-52
2022/11/04 01:11:30;;;;;;;6.72;4.05;;;10.70;99.90;;;;;;5024165;28;20379;-50
2022/11/04 01:13:57;;;;;;;11.05;4.70;;;10.70;99.90;;;;;;5021243;28;20054;-53
2022/11/04 01:16:25;;;;;;;8.38;3.88;;;10.80;99.90;;;;;;5012250;28;20108;-50
2022/11/04 01:18:57;;;;;;;6.32;3.63;;;10.80;99.90;;;;;;5018008;28;20054;-50
2022/11/04 01:21:24;;;;;;;3.72;2.30;;;10.90;99.90;;;;;;5012487;28;20113;-51
2022/11/04 01:23:51;;;;;;;6.03;2.13;;;10.90;99.90;;;;;;5017281;28;20550;-51
2022/11/04 01:26:23;;;;;;;2.28;1.40;;;11.00;99.90;;;;;;5028155;28;20117;-51
2022/11/04 01:28:51;;;;;;;2.75;1.20;;;10.90;99.90;;;;;;5012785;28;20144;-51
2022/11/04 01:31:21;;;;;;;1.45;0.77;;;10.70;99.90;;;;;;5029928;28;20132;-51
2022/11/04 01:33:49;;;;;;;3.15;0.88;;;10.50;99.90;;;;;;5013629;28;20092;-50
2022/11/04 01:36:16;;;;;;;2.38;0.52;;;10.30;99.90;;;;;;5028558;28;20072;-51
2022/11/04 01:38:43;;;;;;;;;;;10.20;99.90;;;;;;5015270;28;20593;-50
2022/11/04 01:41:26;;;;;;;2.25;0.70;;;10.10;99.90;;;;;;5026966;28;19967;-50
2022/11/04 01:43:59;;;;;;;0.88;0.60;;;10.00;99.90;;;;;;5012179;28;20050;-50
2022/11/04 01:46:36;;;;;;;3.33;0.52;;;10.00;99.90;;;;;;5019952;28;20096;-50
2022/11/04 01:49:09;;;;;;;;;;;9.90;99.90;;;;;;5024999;28;20099;-52
2022/11/04 01:51:39;;;;;;;0.70;0.60;;;9.90;99.90;;;;;;5013360;28;19925;-49
2022/11/04 01:54:07;;;;;;;0.40;0.30;;;9.80;99.90;;;;;;5028014;28;20041;-49
2022/11/04 01:56:36;;;;;;;0.90;0.30;;;9.80;99.90;;;;;;5020521;28;20096;-49
2022/11/04 01:59:08;;;;;;;3.10;0.30;;;9.70;99.90;;;;;;5027986;28;20041;-51
2022/11/04 02:01:34;;;;;;;1.88;0.30;;;9.60;99.90;;;;;;5023921;28;20502;-50
2022/11/04 02:06:49;;;;;;;0.45;0.20;;;9.50;99.90;;;;;;5018158;28;20041;-49
2022/11/04 02:09:18;;;;;;;0.98;0.30;;;9.50;99.90;;;;;;5019586;28;20125;-50
2022/11/04 02:14:33;;;;;;;2.10;0.20;;;9.40;99.90;;;;;;5022626;28;20107;-50
2022/11/04 02:17:08;;;;;;;0.80;0.28;;;9.40;99.90;;;;;;5029217;28;20088;-49
2022/11/04 02:19:59;;;;;;;0.30;0.20;;;9.30;99.90;;;;;;5030816;28;20053;-51
2022/11/04 02:22:28;;;;;;;0.35;0.30;;;9.30;99.90;;;;;;5017909;28;20046;-50
2022/11/04 02:25:13;;;;;;;1.05;0.30;;;9.30;99.90;;;;;;5029904;28;20050;-53
2022/11/04 02:27:54;;;;;;;0.28;0.20;;;9.30;99.90;;;;;;5019694;28;20129;-51
2022/11/04 02:30:21;;;;;;;0.30;0.20;;;9.30;99.90;;;;;;5025507;28;20073;-52
2022/11/04 02:33:09;;;;;;;0.20;0.20;;;9.20;99.90;;;;;;5029625;28;20037;-49
2022/11/04 02:36:02;;;;;;;0.95;0.13;;;9.20;99.90;;;;;;5029641;28;20034;-50
2022/11/04 02:38:59;;;;;;;0.55;0.40;;;9.20;99.90;;;;;;5022377;28;20041;-51
2022/11/04 02:41:41;;;;;;;0.65;0.45;;;9.20;99.90;;;;;;5024752;28;20049;-49
2022/11/04 02:44:18;;;;;;;0.65;0.40;;;9.20;99.90;;;;;;5012496;28;20072;-49
2022/11/04 02:47:03;;;;;;;1.92;0.35;;;9.20;99.90;;;;;;5028310;28;20583;-52
2022/11/04 02:49:42;;;;;;;1.38;0.60;;;9.20;99.90;;;;;;5029213;28;20065;-50
2022/11/04 02:52:13;;;;;;;0.40;0.22;;;9.20;99.90;;;;;;5014880;28;20074;-50
2022/11/04 02:54:48;;;;;;;2.63;0.38;;;9.20;99.90;;;;;;5025198;28;20065;-51
2022/11/04 02:57:21;;;;;;;1.90;0.43;;;9.30;99.90;;;;;;5022672;28;20457;-50
2022/11/04 02:59:55;;;;;;;0.68;0.40;;;9.20;99.90;;;;;;5030342;28;20573;-50
2022/11/04 03:02:46;;;;;;;1.35;0.60;;;9.30;99.90;;;;;;5034140;28;20103;-49
2022/11/04 03:05:18;;;;;;;1.02;0.40;;;9.20;99.90;;;;;;5018885;28;20041;-50
2022/11/04 03:07:47;;;;;;;0.50;0.40;;;9.20;99.90;;;;;;5018273;28;20573;-50
2022/11/04 03:10:39;;;;;;;0.80;0.50;;;9.20;99.90;;;;;;5025303;28;20034;-49
2022/11/04 03:13:13;;;;;;;3.72;0.60;;;9.10;99.90;;;;;;5012838;28;20085;-49
2022/11/04 03:15:57;;;;;;;1.35;0.68;;;9.10;99.90;;;;;;5028377;28;20072;-49
2022/11/04 03:19:06;;;;;;;2.33;0.60;;;9.10;99.90;;;;;;5027798;28;20472;-50
2022/11/04 03:21:37;;;;;;;1.55;0.50;;;9.10;99.90;;;;;;5033846;28;20449;-49
2022/11/04 03:24:05;;;;;;;1.23;0.57;;;9.20;99.90;;;;;;5020917;28;20070;-50
2022/11/04 03:26:59;;;;;;;0.80;0.60;;;9.10;99.90;;;;;;5011027;28;20117;-49
2022/11/04 03:29:58;;;;;;;0.98;0.50;;;9.10;99.90;;;;;;5028086;28;20124;-49
2022/11/04 03:32:40;;;;;;;1.07;0.40;;;9.10;99.90;;;;;;5030487;28;20505;-50
2022/11/04 03:35:08;;;;;;;3.63;0.60;;;9.10;99.90;;;;;;5009463;28;20069;-51
2022/11/04 03:37:35;;;;;;;3.45;0.65;;;9.00;99.90;;;;;;5011787;28;20560;-48
2022/11/04 03:40:02;;;;;;;2.10;0.32;;;8.90;99.90;;;;;;5026165;28;20046;-49
2022/11/04 03:42:31;;;;;;;;;;;8.80;99.90;;;;;;5012367;28;20069;-51
2022/11/04 03:44:58;;;;;;;0.30;0.30;;;8.80;99.90;;;;;;5024188;28;19929;-50
2022/11/04 03:47:29;;;;;;;0.95;0.50;;;8.80;99.90;;;;;;5010726;28;20112;-49
2022/11/04 03:50:05;;;;;;;1.05;0.43;;;8.90;99.90;;;;;;5020560;28;20069;-51
2022/11/04 03:52:33;;;;;;;0.47;0.28;;;8.80;99.90;;;;;;5030791;28;20050;-50
2022/11/04 03:54:59;;;;;;;0.70;0.50;;;8.80;99.90;;;;;;5017488;28;20103;-50
2022/11/04 03:57:45;;;;;;;3.05;0.30;;;8.80;99.90;;;;;;5025802;28;20082;-50
2022/11/04 04:00:15;;;;;;;0.57;0.40;;;8.80;99.90;;;;;;5033201;28;20115;-49
2022/11/04 04:03:05;;;;;;;1.23;0.55;;;8.80;99.90;;;;;;5019360;28;20080;-50
2022/11/04 04:05:51;;;;;;;1.27;0.40;;;8.90;99.90;;;;;;5022535;28;20069;-50
2022/11/04 04:08:38;;;;;;;0.75;0.40;;;8.90;99.90;;;;;;5019667;28;20484;-49
2022/11/04 04:11:16;;;;;;;0.60;0.50;;;8.90;99.90;;;;;;5028894;28;20069;-52
2022/11/04 04:13:54;;;;;;;0.77;0.52;;;8.90;99.90;;;;;;5012523;28;20046;-51
2022/11/04 04:16:33;;;;;;;1.35;0.70;;;8.90;99.90;;;;;;5019459;28;20079;-51
2022/11/04 04:19:08;;;;;;;0.63;0.50;;;9.00;99.90;;;;;;5000172;28;20491;-51
2022/11/04 04:21:59;;;;;;;0.80;0.45;;;8.90;99.90;;;;;;5018344;28;20091;-50
2022/11/04 04:27:30;;;;;;;1.20;0.60;;;8.90;99.90;;;;;;5024296;28;20037;-52
2022/11/04 04:30:12;;;;;;;1.30;0.82;;;8.80;99.90;;;;;;5030855;28;20048;-50
2022/11/04 04:32:46;;;;;;;1.50;0.47;;;8.80;99.90;;;;;;5011515;28;20048;-49
2022/11/04 04:46:36;;;;;;;1.02;0.60;;;8.80;99.90;;;;;;5013031;28;20049;-49
2022/11/04 04:49:08;;;;;;;1.25;0.40;;;8.70;99.90;;;;;;5012419;28;20054;-51
2022/11/04 04:51:39;;;;;;;0.50;0.30;;;8.70;99.90;;;;;;5010367;28;20575;-49
2022/11/04 04:54:06;;;;;;;2.53;0.40;;;8.70;99.90;;;;;;5030247;28;20044;-49
2022/11/04 04:56:33;;;;;;;2.00;0.50;;;8.70;99.90;;;;;;5011547;28;20042;-49
2022/11/04 04:59:00;;;;;;;1.52;0.70;;;8.80;99.90;;;;;;5011552;28;20081;-49
2022/11/04 05:01:27;;;;;;;1.63;0.70;;;8.70;99.90;;;;;;5010367;28;20044;-50
2022/11/04 05:03:53;;;;;;;3.42;0.80;;;8.80;99.90;;;;;;5017461;28;20050;-49
2022/11/04 05:06:20;;;;;;;2.17;0.90;;;8.80;99.90;;;;;;5031449;28;20505;-51
2022/11/04 05:08:47;;;;;;;2.85;1.67;;;8.80;99.90;;;;;;5014661;28;20076;-49
2022/11/04 05:11:14;;;;;;;3.95;1.40;;;8.80;99.90;;;;;;5030658;28;20108;-49
2022/11/04 05:13:40;;;;;;;3.15;1.60;;;8.80;99.90;;;;;;5025108;28;20042;-49
2022/11/04 05:16:09;;;;;;;7.22;3.58;;;8.80;99.90;;;;;;5005551;28;20572;-50
2022/11/04 05:18:36;;;;;;;1.45;1.20;;;8.80;99.90;;;;;;5012293;28;20077;-50
2022/11/04 05:21:09;;;;;;;0.98;0.60;;;8.70;99.90;;;;;;5006348;28;20748;-51
2022/11/04 05:23:36;;;;;;;3.40;0.90;;;8.70;99.90;;;;;;5001762;28;20037;-51
2022/11/04 05:26:04;;;;;;;1.48;0.73;;;8.70;99.90;;;;;;5002095;28;20061;-52
2022/11/04 05:28:30;;;;;;;;;;;8.80;99.90;;;;;;5015632;28;20073;-49
2022/11/04 05:31:02;;;;;;;2.50;0.40;;;8.80;99.90;;;;;;5001483;28;19921;-49
2022/11/04 05:33:29;;;;;;;2.35;0.75;;;8.80;99.90;;;;;;5019825;28;20053;-50
2022/11/04 05:36:08;;;;;;;1.77;1.13;;;8.80;99.90;;;;;;5001631;28;20100;-50
2022/11/04 05:38:36;;;;;;;1.73;0.52;;;8.80;99.90;;;;;;5003991;28;20041;-49
2022/11/04 05:41:04;;;;;;;1.90;0.50;;;8.70;99.90;;;;;;5009588;28;20505;-50
2022/11/04 05:43:31;;;;;;;1.02;0.80;;;8.70;99.90;;;;;;5005690;28;20303;-51
2022/11/04 05:45:59;;;;;;;2.53;0.98;;;8.70;99.90;;;;;;4999090;28;20035;-50
2022/11/04 05:48:26;;;;;;;1.92;0.85;;;8.70;99.90;;;;;;4998968;28;20095;-49
2022/11/04 05:50:54;;;;;;;3.53;0.90;;;8.60;99.90;;;;;;5019315;28;20081;-52
2022/11/04 05:53:20;;;;;;;4.72;0.60;;;8.60;99.90;;;;;;5024153;28;20413;-49
2022/11/04 05:55:47;;;;;;;1.30;0.63;;;8.60;99.90;;;;;;5017821;28;20042;-51
2022/11/04 05:58:14;;;;;;;3.17;1.27;;;8.60;99.90;;;;;;5014885;28;20042;-49
2022/11/04 06:00:41;;;;;;;1.40;1.13;;;8.60;99.90;;;;;;5020647;28;20376;-50
2022/11/04 06:03:08;;;;;;;1.77;1.15;;;8.60;99.90;;;;;;5029164;28;20498;-51
2022/11/04 06:05:41;;;;;;;3.63;1.17;;;8.60;99.90;;;;;;5019912;28;20046;-52
2022/11/04 06:08:10;;;;;;;2.35;0.90;;;8.60;99.90;;;;;;5001109;28;20070;-55
2022/11/04 06:10:37;;;;;;;1.42;0.90;;;8.60;99.90;;;;;;5005880;28;20056;-49
2022/11/04 06:13:04;;;;;;;1.75;1.33;;;8.60;99.90;;;;;;5008776;28;20073;-49
2022/11/04 06:15:31;;;;;;;2.10;1.02;;;8.60;99.90;;;;;;5010900;28;20116;-49
2022/11/04 06:17:58;;;;;;;3.80;1.60;;;8.60;99.90;;;;;;5004646;28;20068;-50
2022/11/04 06:20:24;;;;;;;3.67;2.30;;;8.60;99.90;;;;;;5030482;28;20049;-49
2022/11/04 06:22:51;;;;;;;5.68;2.60;;;8.60;99.90;;;;;;5009360;28;20123;-49
2022/11/04 06:25:18;;;;;;;4.10;2.40;;;8.60;99.90;;;;;;5000591;28;20046;-51
2022/11/04 06:27:45;;;;;;;3.97;2.40;;;8.80;99.90;;;;;;4997570;28;20402;-50
2022/11/04 06:30:12;;;;;;;4.65;2.42;;;8.60;99.90;;;;;;5023068;28;20073;-49
2022/11/04 06:32:39;;;;;;;4.30;2.55;;;8.60;99.90;;;;;;5011221;28;20062;-51
2022/11/04 06:35:07;;;;;;;4.35;2.05;;;8.60;99.90;;;;;;5005684;28;20127;-50
2022/11/04 06:37:34;;;;;;;3.83;1.85;;;8.60;99.90;;;;;;5010990;28;20057;-50
2022/11/04 06:40:01;;;;;;;3.47;1.73;;;8.60;99.90;;;;;;5008860;28;20466;-50
2022/11/04 06:42:28;;;;;;;2.67;1.40;;;8.50;99.90;;;;;;5020391;28;20053;-50
2022/11/04 06:44:54;;;;;;;2.55;1.52;;;8.40;99.90;;;;;;5060377;22;20056;-48
2022/11/04 06:47:21;;;;;;;2.75;1.35;;;8.40;99.90;;;;;;5058661;28;20069;-48
2022/11/04 06:49:50;;;;;;;3.20;1.13;;;8.30;99.90;;;;;;5062101;28;20036;-49
2022/11/04 06:52:17;;;;;;;3.72;1.80;;;8.30;99.90;;;;;;5069027;28;20064;-49
2022/11/04 06:54:45;;;;;;;3.28;2.10;;;8.30;99.90;;;;;;5079105;28;20552;-49
2022/11/04 06:57:11;;;;;;;4.80;1.42;;;8.20;99.90;;;;;;5075853;28;20041;-50
2022/11/04 06:59:38;;;;;;;1.25;1.08;;;8.20;99.90;;;;;;5075645;28;20064;-49
2022/11/04 07:02:05;;;;;;;2.55;1.42;;;8.30;99.90;;;;;;5090302;28;20492;-49
2022/11/04 07:04:32;;;;;;;1.75;1.20;;;8.20;99.90;;;;;;5083193;28;20211;-48
2022/11/04 07:06:59;;;;;;;2.97;1.00;;;8.20;99.90;;;;;;5074705;28;20049;-49
2022/11/04 07:09:26;;;;;;;2.80;1.50;;;8.20;99.90;;;;;;5076825;28;20074;-49
2022/11/04 07:11:52;;;;;;;1.45;0.98;;;8.20;99.90;;;;;;5072633;28;20036;-52
2022/11/04 07:14:19;;;;;;;4.78;1.17;;;8.20;99.90;;;;;;5080559;28;20444;-49
2022/11/04 07:16:50;;;;;;;1.83;1.23;;;8.10;99.90;;;;;;5070246;28;20244;-50
2022/11/04 07:19:16;;;;;;;2.08;1.17;;;8.10;99.90;;;;;;5078948;28;20515;-48
2022/11/04 07:21:43;;;;;;;1.67;1.00;;;8.10;99.90;;;;;;5079601;28;20127;-49
2022/11/04 07:24:10;;;;;;;2.03;0.80;;;8.10;99.90;;;;;;5070407;28;20091;-48
2022/11/04 07:26:37;;;;;;;3.28;1.05;;;8.00;99.90;;;;;;5069560;28;20489;-48
2022/11/04 07:29:05;;;;;;;2.65;0.95;;;7.90;99.90;;;;;;5083515;28;20048;-48
2022/11/04 07:31:32;;;;;;;1.42;0.95;;;7.90;99.90;;;;;;5087960;28;20044;-54
2022/11/04 07:33:59;;;;;;;2.22;0.88;;;7.90;99.90;;;;;;5092769;28;20076;-49
2022/11/04 07:36:25;;;;;;;3.47;1.33;;;7.90;99.90;;;;;;5077544;28;20487;-48
2022/11/04 07:38:53;;;;;;;3.05;1.70;;;7.80;99.90;;;;;;5085323;28;20059;-48
2022/11/04 07:41:20;;;;;;;;;;;7.80;99.90;;;;;;5075194;28;20508;-50
2022/11/04 07:43:51;;;;;;;5.70;2.00;;;7.80;99.90;;;;;;5088531;28;19923;-49
2022/11/04 07:46:19;;;;;;;2.50;1.50;;;7.80;99.90;;;;;;5097909;28;20071;-50
2022/11/04 07:48:46;;;;;;;5.50;1.80;;;7.70;99.90;;;;;;5099328;28;20040;-50
2022/11/04 07:51:16;;;;;;;3.42;2.13;;;7.70;99.90;;;;;;5091593;28;20459;-50
2022/11/04 07:53:43;;;;;;;2.75;1.65;;;7.70;99.90;;;;;;5092098;28;20047;-52
2022/11/04 07:56:11;;;;;;;4.68;1.70;;;7.60;99.90;;;;;;5079950;28;20077;-49
2022/11/04 07:58:39;;;;;;;3.17;1.63;;;7.60;99.90;;;;;;5092899;28;20044;-48
2022/11/04 08:01:09;;;;;;;2.25;0.95;;;7.60;99.90;;;;;;5092090;28;20059;-48
2022/11/04 08:03:36;;;;;;;3.03;0.80;;;7.50;99.90;;;;;;5085738;28;20444;-48
2022/11/04 08:06:05;;;;;;;1.67;0.70;;;7.40;99.90;;;;;;5078238;28;20072;-50
2022/11/04 08:08:32;;;;;;;1.90;0.75;;;7.30;99.90;;;;;;5072882;28;20045;-48
2022/11/04 08:11:04;;;;;;;;;;;7.20;99.90;;;;;;5072801;28;20048;-50
2022/11/04 08:13:32;;;;;;;2.25;0.85;;;7.20;99.90;;;;;;5067617;28;19924;-48
2022/11/04 08:16:05;;;;;;;4.40;1.67;;;7.20;99.90;;;;;;5071738;28;20041;-51
2022/11/04 08:18:32;;;;;;;3.88;1.88;;;7.20;99.90;;;;;;5071222;28;20075;-48
2022/11/04 08:21:01;;;;;;;4.07;1.40;;;7.10;99.90;;;;;;5071676;28;20048;-52
2022/11/04 08:23:28;;;;;;;7.75;2.17;;;7.10;99.90;;;;;;5092405;28;20048;-50
2022/11/04 08:25:56;;;;;;;4.32;1.77;;;7.20;99.90;;;;;;5087667;28;20052;-48
2022/11/04 08:28:23;;;;;;;10.15;4.30;;;7.10;99.90;;;;;;5073374;28;20091;-50
2022/11/04 08:30:57;;;;;;;20.60;7.95;;;7.10;99.90;;;;;;5071566;28;20041;-50
2022/11/04 08:33:25;;;;;;;12.25;3.90;;;7.10;99.90;;;;;;5092225;28;20044;-50
2022/11/04 08:35:52;;;;;;;6.50;1.88;;;7.10;99.90;;;;;;5084949;28;20082;-50
2022/11/04 08:38:19;;;;;;;3.83;1.63;;;7.10;99.90;;;;;;5073683;28;20461;-49
2022/11/04 08:40:46;;;;;;;2.97;1.85;;;7.00;99.90;;;;;;5071608;28;20446;-49
2022/11/04 08:43:13;;;;;;;6.43;2.65;;;7.00;99.90;;;;;;5072335;28;20106;-48
2022/11/04 08:45:42;;;;;;;17.85;6.75;;;6.90;99.90;;;;;;5073199;28;20083;-49
2022/11/04 08:48:09;;;;;;;15.40;5.70;;;6.90;99.90;;;;;;5072454;28;20041;-48
2022/11/04 08:50:37;;;;;;;19.02;10.88;;;6.90;99.90;;;;;;5080484;28;20040;-49
2022/11/04 08:53:04;;;;;;;5.72;3.45;;;6.90;99.90;;;;;;5090743;28;20040;-49
2022/11/04 08:55:31;;;;;;;2.20;1.48;;;6.90;99.90;;;;;;5090279;28;20090;-49
2022/11/04 08:57:59;;;;;;;2.90;2.20;;;7.00;99.90;;;;;;5072240;28;20083;-50
2022/11/04 09:00:26;;;;;;;5.13;3.25;;;6.90;99.90;;;;;;5078243;28;20447;-50
2022/11/04 09:02:54;;;;;;;2.60;2.40;;;6.90;99.90;;;;;;5076338;28;20048;-49
2022/11/04 09:05:21;;;;;;;3.00;1.30;;;6.80;99.90;;;;;;5080863;28;20040;-50
2022/11/04 09:07:48;;;;;;;5.72;1.40;;;6.80;99.90;;;;;;5075532;28;20048;-48
2022/11/04 09:10:16;;;;;;;2.28;1.20;;;6.80;99.90;;;;;;5083926;28;20067;-50
2022/11/04 09:12:43;;;;;;;6.75;2.00;;;6.80;99.90;;;;;;5081374;28;20111;-49
2022/11/04 09:15:11;;;;;;;7.65;3.00;;;6.80;99.90;;;;;;5075452;28;20098;-48
2022/11/04 09:17:37;;;;;;;;;;;6.70;99.90;;;;;;5052618;28;20443;-49
2022/11/04 09:20:05;;;;;;;6.30;2.55;;;6.70;99.90;;;;;;5077764;28;19924;-48
2022/11/04 09:22:32;;;;;;;2.25;0.95;;;6.70;99.90;;;;;;5073588;28;20078;-49
2022/11/04 09:24:58;;;;;;;3.55;1.58;;;6.60;99.90;;;;;;5083138;28;20044;-48
2022/11/04 09:27:25;;;;;;;2.17;0.82;;;6.60;99.90;;;;;;5086055;28;20436;-49
2022/11/04 09:29:52;;;;;;;1.05;0.73;;;6.60;99.90;;;;;;5091273;28;20064;-48
2022/11/04 09:32:18;;;;;;;2.58;1.25;;;6.60;99.90;;;;;;5087913;28;20094;-52
2022/11/04 09:34:45;;;;;;;10.30;4.03;;;6.60;99.90;;;;;;5067902;28;20106;-49
2022/11/04 09:37:12;;;;;;;7.72;3.28;;;6.60;99.90;;;;;;5070619;28;20068;-49
2022/11/04 09:39:38;;;;;;;8.70;3.13;;;6.50;99.90;;;;;;5086822;28;20040;-50
2022/11/04 09:42:32;;;;;;;7.15;1.88;;;6.50;99.90;;;;;;5070581;28;20568;-49
2022/11/04 09:45:10;;;;;;;1.58;0.80;;;6.40;99.90;;;;;;5068453;28;20080;-48
2022/11/04 09:47:59;;;;;;;1.40;0.88;;;6.50;99.90;;;;;;5085631;28;20118;-48
2022/11/04 09:50:35;;;;;;;13.65;5.20;;;6.40;99.90;;;;;;5091758;28;20044;-50
2022/11/04 09:53:25;;;;;;;5.25;2.03;;;6.40;99.90;;;;;;5089384;28;20062;-48
2022/11/04 09:55:52;;;;;;;1.27;0.60;;;6.40;99.90;;;;;;5086562;28;20097;-49
2022/11/04 09:58:19;;;;;;;1.67;0.82;;;6.30;99.90;;;;;;5090509;28;20500;-52
2022/11/04 10:01:14;;;;;;;1.17;0.45;;;6.30;99.90;;;;;;5090572;28;20046;-49
2022/11/04 10:03:47;;;;;;;0.70;0.50;;;6.30;99.90;;;;;;5090317;28;20520;-49
2022/11/04 10:06:44;;;;;;;13.85;5.07;;;6.30;99.90;;;;;;5089655;28;20044;-50
2022/11/04 10:09:23;;;;;;;8.15;4.28;;;6.30;99.90;;;;;;5085652;28;20067;-49
2022/11/04 10:12:01;;;;;;;2.72;1.70;;;6.20;99.90;;;;;;5075360;28;20036;-48
2022/11/04 10:18:44;;;;;;;2.97;1.40;;;6.20;99.90;;;;;;5047544;28;20061;-50
2022/11/04 10:21:34;;;;;;;1.67;0.88;;;6.20;99.90;;;;;;5060115;28;20060;-48
2022/11/04 10:24:19;;;;;;;2.63;1.63;;;6.10;99.90;;;;;;5070906;28;20095;-50
2022/11/04 10:26:56;;;;;;;1.55;0.88;;;6.10;99.90;;;;;;5079514;28;20093;-49
2022/11/04 10:29:42;;;;;;;2.05;0.93;;;6.00;99.90;;;;;;5070614;28;20047;-50
2022/11/04 10:32:34;;;;;;;1.85;1.20;;;6.10;99.90;;;;;;5084994;28;20085;-48
2022/11/04 10:35:06;;;;;;;7.95;2.83;;;6.00;99.90;;;;;;5090666;28;20048;-48
2022/11/04 10:37:33;;;;;;;6.18;3.60;;;6.00;99.90;;;;;;5083072;28;20547;-49
2022/11/04 10:40:19;;;;;;;3.45;1.85;;;6.00;99.90;;;;;;5084934;28;20041;-50
2022/11/04 10:42:46;;;;;;;4.22;2.95;;;5.90;99.90;;;;;;5084953;28;20044;-49
2022/11/04 10:45:13;;;;;;;4.35;1.83;;;5.90;99.90;;;;;;5084383;28;20477;-49
2022/11/04 10:47:48;;;;;;;;;;;5.90;99.90;;;;;;5053322;28;20534;-48
2022/11/04 10:50:24;;;;;;;3.42;1.80;;;5.90;99.90;;;;;;5074453;28;19966;-49
2022/11/04 10:53:18;;;;;;;4.72;2.60;;;5.80;99.90;;;;;;5090900;28;20040;-49
2022/11/04 10:56:12;;;;;;;8.48;5.10;;;5.70;99.90;;;;;;5085402;28;20385;-48
2022/11/04 10:58:46;;;;;;;6.22;3.80;;;5.80;99.90;;;;;;5070515;28;20508;-49
2022/11/04 11:01:22;;;;;;;2.53;1.42;;;5.70;99.90;;;;;;5087143;28;20402;-49
2022/11/04 11:03:49;;;;;;;3.35;1.55;;;5.70;99.90;;;;;;5071889;28;20036;-48
2022/11/04 11:06:30;;;;;;;2.47;1.50;;;5.60;99.90;;;;;;5092914;28;20475;-48
2022/11/04 11:09:12;;;;;;;3.60;2.45;;;5.70;99.90;;;;;;5090192;28;20048;-48
2022/11/04 11:11:47;;;;;;;8.45;4.10;;;5.60;99.90;;;;;;5078048;28;20512;-52
2022/11/04 11:14:26;;;;;;;8.73;2.55;;;5.70;99.90;;;;;;5076074;28;20059;-49
2022/11/04 11:16:55;;;;;;;7.15;4.22;;;5.50;99.90;;;;;;5073576;28;20032;-50
2022/11/04 11:19:24;;;;;;;7.43;4.10;;;5.50;99.90;;;;;;5081590;28;20067;-48
2022/11/04 11:21:53;;;;;;;5.03;2.35;;;5.70;99.90;;;;;;5089289;28;20083;-48
2022/11/04 11:24:23;;;;;;;1.95;1.48;;;5.60;99.90;;;;;;5091191;28;20067;-48
2022/11/04 11:26:55;;;;;;;2.70;1.40;;;5.60;99.90;;;;;;5074987;28;20083;-50
2022/11/04 11:29:25;;;;;;;2.38;1.00;;;5.60;99.90;;;;;;5084476;28;20377;-48
2022/11/04 11:31:53;;;;;;;1.95;0.98;;;5.60;99.90;;;;;;5093882;28;20467;-48
2022/11/04 11:34:25;;;;;;;5.60;2.20;;;5.60;99.90;;;;;;5087134;28;20064;-48
2022/11/04 11:36:54;;;;;;;2.72;1.92;;;5.70;99.90;;;;;;5087878;28;20055;-49
2022/11/04 11:39:27;;;;;;;3.88;1.60;;;5.60;99.90;;;;;;5092632;28;20161;-48
2022/11/04 11:42:03;;;;;;;2.03;0.90;;;5.60;99.90;;;;;;5089348;28;20113;-48
2022/11/04 11:44:42;;;;;;;1.17;0.70;;;5.60;99.90;;;;;;5085712;28;20478;-50
2022/11/04 11:47:36;;;;;;;1.67;0.80;;;5.50;99.90;;;;;;5075432;28;20099;-51
2022/11/04 11:50:14;;;;;;;1.23;0.75;;;5.50;99.90;;;;;;5081041;28;20052;-48
2022/11/04 11:52:42;;;;;;;1.88;1.20;;;5.40;99.90;;;;;;5081916;28;20068;-49
2022/11/04 11:55:25;;;;;;;3.78;2.50;;;5.40;99.90;;;;;;5075998;28;20044;-48
2022/11/04 11:58:15;;;;;;;2.15;1.33;;;5.30;99.90;;;;;;5079484;28;20060;-48
2022/11/04 12:01:16;;;;;;;;;;;5.40;99.90;;;;;;5047848;28;20088;-48
2022/11/04 12:03:51;;;;;;;5.15;2.20;;;5.40;99.90;;;;;;5087333;28;20248;-49
2022/11/04 12:06:53;;;;;;;1.65;1.13;;;5.40;99.90;;;;;;5078991;28;20040;-50
2022/11/04 12:10:19;;;;;;;2.40;1.42;;;5.30;99.90;;;;;;5073483;28;20052;-50
2022/11/04 12:13:06;;;;;;;1.10;0.85;;;5.30;99.90;;;;;;5080275;28;20131;-50
2022/11/04 12:16:14;;;;;;;6.28;3.20;;;5.30;99.90;;;;;;5074606;28;20102;-48
2022/11/04 12:19:10;;;;;;;3.38;1.67;;;5.30;99.90;;;;;;5075331;28;20071;-49
2022/11/04 12:21:47;;;;;;;2.30;1.23;;;5.30;99.90;;;;;;5092306;28;20105;-49
2022/11/04 12:24:23;;;;;;;2.78;1.88;;;5.30;99.90;;;;;;5072818;28;20044;-51
2022/11/04 12:27:18;;;;;;;1.88;1.50;;;5.20;99.90;;;;;;5085131;28;20044;-49
2022/11/04 12:29:57;;;;;;;3.67;1.70;;;5.20;99.90;;;;;;5072438;28;20048;-47
2022/11/04 12:32:39;;;;;;;1.67;1.30;;;5.20;99.90;;;;;;5090815;28;20458;-48
2022/11/04 12:35:12;;;;;;;1.33;0.90;;;5.20;99.90;;;;;;5087882;28;20036;-49
2022/11/04 12:37:58;;;;;;;1.30;0.60;;;5.10;99.90;;;;;;5092627;28;20048;-50
2022/11/04 12:40:28;;;;;;;2.75;1.20;;;5.00;99.90;;;;;;5069234;28;20063;-50
2022/11/04 12:43:06;;;;;;;2.10;1.80;;;4.90;99.90;;;;;;5076963;28;20048;-48
2022/11/04 12:45:54;;;;;;;3.50;1.25;;;5.00;99.90;;;;;;5064998;22;20045;-51
2022/11/04 12:49:07;;;;;;;1.58;1.35;;;5.20;99.90;;;;;;5051968;28;20045;-52
2022/11/04 12:52:05;;;;;;;4.78;3.53;;;5.30;99.90;;;;;;5045679;28;20041;-49
2022/11/04 12:55:01;;;;;;;3.08;1.85;;;5.40;99.90;;;;;;5051385;28;20099;-48
2022/11/04 12:57:55;;;;;;;1.13;0.88;;;5.30;99.90;;;;;;5049703;28;20064;-55
2022/11/04 13:00:27;;;;;;;2.13;0.57;;;5.00;99.90;;;;;;5050467;28;20049;-48
2022/11/04 13:03:00;;;;;;;1.45;1.33;;;5.00;99.90;;;;;;5047065;28;20099;-49
2022/11/04 13:05:36;;;;;;;1.17;1.00;;;4.90;99.90;;;;;;5040946;28;20096;-49
2022/11/04 13:08:10;;;;;;;1.90;1.20;;;4.90;99.90;;;;;;5037912;28;20120;-51
2022/11/04 13:10:48;;;;;;;1.52;1.33;;;5.10;99.90;;;;;;5049271;28;20116;-50
2022/11/04 13:13:19;;;;;;;1.20;0.85;;;5.20;99.90;;;;;;5050673;28;20073;-50
2022/11/04 13:15:51;;;;;;;1.95;1.20;;;5.20;99.90;;;;;;5052511;28;20067;-51
2022/11/04 13:18:20;;;;;;;2.08;1.00;;;5.20;99.90;;;;;;5045688;28;20649;-50
2022/11/04 13:20:54;;;;;;;1.88;1.20;;;5.20;99.90;;;;;;5051283;28;20068;-50
2022/11/04 13:23:56;;;;;;;1.23;0.77;;;5.20;99.90;;;;;;5044826;28;20044;-49
2022/11/04 13:26:22;;;;;;;0.82;0.50;;;5.10;99.90;;;;;;5050338;28;20071;-50
2022/11/04 13:28:58;;;;;;;0.88;0.63;;;5.00;99.90;;;;;;5049428;28;20080;-52
2022/11/04 13:31:42;;;;;;;5.63;2.13;;;5.00;99.90;;;;;;5071727;28;20068;-53
2022/11/04 13:34:27;;;;;;;4.72;2.28;;;4.90;99.90;;;;;;5063432;28;20040;-51
2022/11/04 13:37:30;;;;;;;5.05;1.67;;;4.90;99.90;;;;;;5067248;28;20085;-51
2022/11/04 13:40:05;;;;;;;3.75;1.90;;;4.90;99.90;;;;;;5070870;28;20040;-53
2022/11/04 13:45:54;;;;;;;2.63;1.70;;;5.00;99.90;;;;;;5050575;28;20079;-52
2022/11/04 13:48:25;;;;;;;2.20;1.10;;;5.10;99.90;;;;;;5068374;28;20041;-50
2022/11/04 13:51:04;;;;;;;3.47;1.38;;;5.10;99.90;;;;;;5068371;28;20052;-53
2022/11/04 13:53:57;;;;;;;2.03;1.10;;;5.00;99.90;;;;;;5066188;28;20094;-50
2022/11/04 13:56:31;;;;;;;1.73;1.08;;;4.90;99.90;;;;;;5066735;28;20093;-49
2022/11/04 13:59:18;;;;;;;2.80;1.50;;;4.80;99.90;;;;;;5068787;28;20051;-51
2022/11/04 14:01:45;;;;;;;1.88;1.30;;;4.60;99.90;;;;;;5051810;28;20044;-51
2022/11/04 14:04:12;;;;;;;4.25;2.63;;;4.60;99.90;;;;;;5062766;28;20443;-49
2022/11/04 14:06:56;;;;;;;6.05;3.45;;;4.60;99.90;;;;;;5069380;28;20037;-51
2022/11/04 14:09:32;;;;;;;4.13;2.88;;;4.60;99.90;;;;;;5051084;28;20667;-51
2022/11/04 14:12:17;;;;;;;5.80;3.42;;;4.50;99.90;;;;;;5068824;28;20143;-50